sensor_id;sensor_type;location;lat;lon;timestamp;P1;durP1;ratioP1;P2;durP2;ratioP2
68273;SDS011;55104;47.356;19.448;2023-11-21T00:00:08;10.68;;;4.35;;
68273;SDS011;55104;47.356;19.448;2023-11-21T00:03:14;11.68;;;5.32;;
68273;SDS011;55104;47.356;19.448;2023-11-21T00:06:17;12.88;;;5.30;;
68273;SDS011;55104;47.356;19.448;2023-11-21T00:09:20;15.90;;;5.70;;
68273;SDS011;55104;47.356;19.448;2023-11-21T00:12:22;15.47;;;5.13;;
68273;SDS011;55104;47.356;19.448;2023-11-21T00:15:24;15.35;;;6.20;;
68273;SDS011;55104;47.356;19.448;2023-11-21T00:18:28;9.95;;;4.72;;
68273;SDS011;55104;47.356;19.448;2023-11-21T00:21:30;15.87;;;5.10;;
68273;SDS011;55104;47.356;19.448;2023-11-21T00:24:32;11.40;;;5.20;;
68273;SDS011;55104;47.356;19.448;2023-11-21T00:27:35;9.30;;;3.85;;
68273;SDS011;55104;47.356;19.448;2023-11-21T00:30:38;9.50;;;3.65;;
68273;SDS011;55104;47.356;19.448;2023-11-21T00:33:40;14.82;;;5.35;;
68273;SDS011;55104;47.356;19.448;2023-11-21T00:36:42;8.80;;;4.32;;
68273;SDS011;55104;47.356;19.448;2023-11-21T00:39:44;10.25;;;5.35;;
68273;SDS011;55104;47.356;19.448;2023-11-21T00:42:47;24.47;;;10.43;;
68273;SDS011;55104;47.356;19.448;2023-11-21T00:45:50;14.85;;;5.85;;
68273;SDS011;55104;47.356;19.448;2023-11-21T00:48:53;13.95;;;6.43;;
68273;SDS011;55104;47.356;19.448;2023-11-21T00:51:56;9.73;;;4.40;;
68273;SDS011;55104;47.356;19.448;2023-11-21T00:55:01;11.68;;;5.55;;
68273;SDS011;55104;47.356;19.448;2023-11-21T00:58:05;13.65;;;5.47;;
68273;SDS011;55104;47.356;19.448;2023-11-21T01:01:08;17.13;;;6.47;;
68273;SDS011;55104;47.356;19.448;2023-11-21T01:04:11;15.68;;;7.47;;
68273;SDS011;55104;47.356;19.448;2023-11-21T01:07:15;13.55;;;7.10;;
68273;SDS011;55104;47.356;19.448;2023-11-21T01:10:18;14.15;;;6.10;;
68273;SDS011;55104;47.356;19.448;2023-11-21T01:13:20;17.37;;;6.10;;
68273;SDS011;55104;47.356;19.448;2023-11-21T01:16:22;17.02;;;7.70;;
68273;SDS011;55104;47.356;19.448;2023-11-21T01:19:26;12.13;;;5.32;;
68273;SDS011;55104;47.356;19.448;2023-11-21T01:22:28;15.33;;;5.93;;
68273;SDS011;55104;47.356;19.448;2023-11-21T01:25:30;9.25;;;5.43;;
68273;SDS011;55104;47.356;19.448;2023-11-21T01:28:32;9.38;;;4.68;;
68273;SDS011;55104;47.356;19.448;2023-11-21T01:31:35;16.63;;;7.78;;
68273;SDS011;55104;47.356;19.448;2023-11-21T01:34:37;13.90;;;5.30;;
68273;SDS011;55104;47.356;19.448;2023-11-21T01:37:40;11.68;;;4.97;;
68273;SDS011;55104;47.356;19.448;2023-11-21T01:40:42;11.05;;;4.65;;
68273;SDS011;55104;47.356;19.448;2023-11-21T01:43:44;11.30;;;6.33;;
68273;SDS011;55104;47.356;19.448;2023-11-21T01:46:47;10.15;;;4.90;;
68273;SDS011;55104;47.356;19.448;2023-11-21T01:49:49;12.18;;;6.13;;
68273;SDS011;55104;47.356;19.448;2023-11-21T01:52:51;10.10;;;4.77;;
68273;SDS011;55104;47.356;19.448;2023-11-21T01:55:55;12.73;;;4.45;;
68273;SDS011;55104;47.356;19.448;2023-11-21T01:59:00;12.30;;;4.32;;
68273;SDS011;55104;47.356;19.448;2023-11-21T02:02:03;9.23;;;3.97;;
68273;SDS011;55104;47.356;19.448;2023-11-21T02:05:08;12.13;;;4.22;;
68273;SDS011;55104;47.356;19.448;2023-11-21T02:08:10;11.07;;;4.68;;
68273;SDS011;55104;47.356;19.448;2023-11-21T02:11:13;15.75;;;5.15;;
68273;SDS011;55104;47.356;19.448;2023-11-21T02:14:15;7.80;;;4.50;;
68273;SDS011;55104;47.356;19.448;2023-11-21T02:17:18;11.88;;;3.53;;
68273;SDS011;55104;47.356;19.448;2023-11-21T02:20:21;9.65;;;4.05;;
68273;SDS011;55104;47.356;19.448;2023-11-21T02:23:26;12.70;;;4.87;;
68273;SDS011;55104;47.356;19.448;2023-11-21T02:26:30;10.73;;;4.72;;
68273;SDS011;55104;47.356;19.448;2023-11-21T02:29:33;8.35;;;3.30;;
68273;SDS011;55104;47.356;19.448;2023-11-21T02:32:35;6.90;;;3.22;;
68273;SDS011;55104;47.356;19.448;2023-11-21T02:35:49;7.10;;;3.38;;
68273;SDS011;55104;47.356;19.448;2023-11-21T02:38:54;10.75;;;3.53;;
68273;SDS011;55104;47.356;19.448;2023-11-21T02:41:56;7.50;;;3.33;;
68273;SDS011;55104;47.356;19.448;2023-11-21T02:44:58;9.27;;;3.57;;
68273;SDS011;55104;47.356;19.448;2023-11-21T02:48:01;9.73;;;3.95;;
68273;SDS011;55104;47.356;19.448;2023-11-21T02:51:03;7.97;;;2.92;;
68273;SDS011;55104;47.356;19.448;2023-11-21T02:54:06;7.23;;;3.60;;
68273;SDS011;55104;47.356;19.448;2023-11-21T02:57:10;8.55;;;3.67;;
68273;SDS011;55104;47.356;19.448;2023-11-21T03:00:12;6.72;;;2.58;;
68273;SDS011;55104;47.356;19.448;2023-11-21T03:03:18;11.48;;;4.35;;
68273;SDS011;55104;47.356;19.448;2023-11-21T03:06:21;5.55;;;2.78;;
68273;SDS011;55104;47.356;19.448;2023-11-21T03:09:23;9.43;;;3.35;;
68273;SDS011;55104;47.356;19.448;2023-11-21T03:12:26;8.98;;;3.60;;
68273;SDS011;55104;47.356;19.448;2023-11-21T03:15:28;9.27;;;5.57;;
68273;SDS011;55104;47.356;19.448;2023-11-21T03:18:32;10.25;;;4.00;;
68273;SDS011;55104;47.356;19.448;2023-11-21T03:21:34;9.48;;;4.45;;
68273;SDS011;55104;47.356;19.448;2023-11-21T03:24:37;11.07;;;4.50;;
68273;SDS011;55104;47.356;19.448;2023-11-21T03:27:40;15.60;;;4.93;;
68273;SDS011;55104;47.356;19.448;2023-11-21T03:30:43;11.35;;;4.53;;
68273;SDS011;55104;47.356;19.448;2023-11-21T03:33:45;9.20;;;3.83;;
68273;SDS011;55104;47.356;19.448;2023-11-21T03:36:49;6.82;;;3.08;;
68273;SDS011;55104;47.356;19.448;2023-11-21T03:39:51;7.38;;;3.28;;
68273;SDS011;55104;47.356;19.448;2023-11-21T03:42:54;10.18;;;4.18;;
68273;SDS011;55104;47.356;19.448;2023-11-21T03:45:56;7.40;;;2.43;;
68273;SDS011;55104;47.356;19.448;2023-11-21T03:48:58;6.55;;;2.67;;
68273;SDS011;55104;47.356;19.448;2023-11-21T03:52:01;10.38;;;3.58;;
68273;SDS011;55104;47.356;19.448;2023-11-21T03:55:06;8.53;;;3.93;;
68273;SDS011;55104;47.356;19.448;2023-11-21T03:58:09;9.23;;;3.67;;
68273;SDS011;55104;47.356;19.448;2023-11-21T04:01:11;11.52;;;5.32;;
68273;SDS011;55104;47.356;19.448;2023-11-21T04:04:14;17.13;;;5.65;;
68273;SDS011;55104;47.356;19.448;2023-11-21T04:07:16;12.25;;;5.25;;
68273;SDS011;55104;47.356;19.448;2023-11-21T04:10:19;9.88;;;4.00;;
68273;SDS011;55104;47.356;19.448;2023-11-21T04:13:21;11.00;;;4.07;;
68273;SDS011;55104;47.356;19.448;2023-11-21T04:16:23;8.70;;;4.43;;
68273;SDS011;55104;47.356;19.448;2023-11-21T04:19:26;10.65;;;4.03;;
68273;SDS011;55104;47.356;19.448;2023-11-21T04:22:28;12.73;;;6.38;;
68273;SDS011;55104;47.356;19.448;2023-11-21T04:25:30;21.23;;;4.33;;
68273;SDS011;55104;47.356;19.448;2023-11-21T04:28:32;10.98;;;5.50;;
68273;SDS011;55104;47.356;19.448;2023-11-21T04:31:35;12.75;;;4.78;;
68273;SDS011;55104;47.356;19.448;2023-11-21T04:34:37;9.95;;;4.50;;
68273;SDS011;55104;47.356;19.448;2023-11-21T04:37:39;10.13;;;5.07;;
68273;SDS011;55104;47.356;19.448;2023-11-21T04:40:41;16.15;;;6.18;;
68273;SDS011;55104;47.356;19.448;2023-11-21T04:43:43;14.80;;;5.55;;
68273;SDS011;55104;47.356;19.448;2023-11-21T04:46:45;13.53;;;5.60;;
68273;SDS011;55104;47.356;19.448;2023-11-21T04:49:48;10.27;;;5.25;;
68273;SDS011;55104;47.356;19.448;2023-11-21T04:52:50;9.10;;;3.75;;
68273;SDS011;55104;47.356;19.448;2023-11-21T04:55:52;10.77;;;4.63;;
68273;SDS011;55104;47.356;19.448;2023-11-21T04:58:54;8.93;;;4.45;;
68273;SDS011;55104;47.356;19.448;2023-11-21T05:01:57;13.30;;;4.65;;
68273;SDS011;55104;47.356;19.448;2023-11-21T05:04:59;13.43;;;5.45;;
68273;SDS011;55104;47.356;19.448;2023-11-21T05:08:02;12.82;;;5.00;;
68273;SDS011;55104;47.356;19.448;2023-11-21T05:11:05;11.98;;;5.45;;
68273;SDS011;55104;47.356;19.448;2023-11-21T05:14:09;13.23;;;4.88;;
68273;SDS011;55104;47.356;19.448;2023-11-21T05:17:11;19.03;;;6.43;;
68273;SDS011;55104;47.356;19.448;2023-11-21T05:20:14;12.95;;;6.25;;
68273;SDS011;55104;47.356;19.448;2023-11-21T05:23:20;13.75;;;6.07;;
68273;SDS011;55104;47.356;19.448;2023-11-21T05:26:22;19.00;;;6.43;;
68273;SDS011;55104;47.356;19.448;2023-11-21T05:29:24;12.15;;;6.75;;
68273;SDS011;55104;47.356;19.448;2023-11-21T05:32:27;14.27;;;5.43;;
68273;SDS011;55104;47.356;19.448;2023-11-21T05:35:29;27.77;;;8.05;;
68273;SDS011;55104;47.356;19.448;2023-11-21T05:38:32;15.85;;;9.02;;
68273;SDS011;55104;47.356;19.448;2023-11-21T05:41:35;17.27;;;7.38;;
68273;SDS011;55104;47.356;19.448;2023-11-21T05:44:37;15.93;;;8.77;;
68273;SDS011;55104;47.356;19.448;2023-11-21T05:47:44;18.33;;;9.93;;
68273;SDS011;55104;47.356;19.448;2023-11-21T05:50:49;18.63;;;8.07;;
68273;SDS011;55104;47.356;19.448;2023-11-21T05:53:54;16.23;;;9.98;;
68273;SDS011;55104;47.356;19.448;2023-11-21T05:56:56;26.30;;;11.27;;
68273;SDS011;55104;47.356;19.448;2023-11-21T05:59:58;33.63;;;18.52;;
68273;SDS011;55104;47.356;19.448;2023-11-21T06:03:01;28.95;;;14.48;;
68273;SDS011;55104;47.356;19.448;2023-11-21T06:06:03;19.77;;;10.90;;
68273;SDS011;55104;47.356;19.448;2023-11-21T06:09:06;17.75;;;10.70;;
68273;SDS011;55104;47.356;19.448;2023-11-21T06:12:11;17.05;;;8.88;;
68273;SDS011;55104;47.356;19.448;2023-11-21T06:15:13;18.02;;;8.85;;
68273;SDS011;55104;47.356;19.448;2023-11-21T06:18:16;12.80;;;6.47;;
68273;SDS011;55104;47.356;19.448;2023-11-21T06:21:20;15.90;;;7.28;;
68273;SDS011;55104;47.356;19.448;2023-11-21T06:24:23;19.80;;;8.20;;
68273;SDS011;55104;47.356;19.448;2023-11-21T06:27:25;20.47;;;9.03;;
68273;SDS011;55104;47.356;19.448;2023-11-21T06:30:27;20.05;;;8.20;;
68273;SDS011;55104;47.356;19.448;2023-11-21T06:33:33;23.35;;;9.65;;
68273;SDS011;55104;47.356;19.448;2023-11-21T06:36:36;26.50;;;10.55;;
68273;SDS011;55104;47.356;19.448;2023-11-21T06:39:38;19.77;;;10.27;;
68273;SDS011;55104;47.356;19.448;2023-11-21T06:42:40;23.77;;;9.95;;
68273;SDS011;55104;47.356;19.448;2023-11-21T06:45:43;17.77;;;8.77;;
68273;SDS011;55104;47.356;19.448;2023-11-21T06:48:45;14.43;;;7.03;;
68273;SDS011;55104;47.356;19.448;2023-11-21T06:51:48;19.98;;;8.38;;
68273;SDS011;55104;47.356;19.448;2023-11-21T06:54:50;23.08;;;8.20;;
68273;SDS011;55104;47.356;19.448;2023-11-21T06:57:52;18.80;;;8.97;;
68273;SDS011;55104;47.356;19.448;2023-11-21T07:00:54;21.23;;;11.13;;
68273;SDS011;55104;47.356;19.448;2023-11-21T07:03:57;25.88;;;10.73;;
68273;SDS011;55104;47.356;19.448;2023-11-21T07:06:59;25.20;;;12.00;;
68273;SDS011;55104;47.356;19.448;2023-11-21T07:10:01;25.27;;;12.10;;
68273;SDS011;55104;47.356;19.448;2023-11-21T07:13:05;29.35;;;14.05;;
68273;SDS011;55104;47.356;19.448;2023-11-21T07:16:08;25.15;;;11.35;;
68273;SDS011;55104;47.356;19.448;2023-11-21T07:19:12;40.17;;;18.90;;
68273;SDS011;55104;47.356;19.448;2023-11-21T07:22:14;43.33;;;19.08;;
68273;SDS011;55104;47.356;19.448;2023-11-21T07:25:17;42.45;;;17.88;;
68273;SDS011;55104;47.356;19.448;2023-11-21T07:28:19;28.40;;;15.80;;
68273;SDS011;55104;47.356;19.448;2023-11-21T07:31:21;37.15;;;14.98;;
68273;SDS011;55104;47.356;19.448;2023-11-21T07:34:26;27.00;;;11.82;;
68273;SDS011;55104;47.356;19.448;2023-11-21T07:37:29;44.47;;;13.43;;
68273;SDS011;55104;47.356;19.448;2023-11-21T07:40:31;27.90;;;10.90;;
68273;SDS011;55104;47.356;19.448;2023-11-21T07:43:34;27.30;;;9.77;;
68273;SDS011;55104;47.356;19.448;2023-11-21T07:46:37;18.83;;;8.02;;
68273;SDS011;55104;47.356;19.448;2023-11-21T07:49:39;16.70;;;7.20;;
68273;SDS011;55104;47.356;19.448;2023-11-21T07:52:44;15.02;;;7.55;;
68273;SDS011;55104;47.356;19.448;2023-11-21T07:55:47;16.35;;;7.43;;
68273;SDS011;55104;47.356;19.448;2023-11-21T07:58:49;13.77;;;6.67;;
68273;SDS011;55104;47.356;19.448;2023-11-21T08:01:55;10.95;;;4.43;;
68273;SDS011;55104;47.356;19.448;2023-11-21T08:04:57;9.55;;;5.00;;
68273;SDS011;55104;47.356;19.448;2023-11-21T08:07:59;11.13;;;4.72;;
68273;SDS011;55104;47.356;19.448;2023-11-21T08:11:02;12.10;;;4.50;;
68273;SDS011;55104;47.356;19.448;2023-11-21T08:14:05;13.75;;;4.03;;
68273;SDS011;55104;47.356;19.448;2023-11-21T08:17:08;10.50;;;4.40;;
68273;SDS011;55104;47.356;19.448;2023-11-21T08:20:12;11.53;;;4.70;;
68273;SDS011;55104;47.356;19.448;2023-11-21T08:23:15;10.63;;;6.43;;
68273;SDS011;55104;47.356;19.448;2023-11-21T08:26:21;19.45;;;5.82;;
68273;SDS011;55104;47.356;19.448;2023-11-21T08:29:24;14.80;;;6.83;;
68273;SDS011;55104;47.356;19.448;2023-11-21T08:32:27;13.35;;;5.57;;
68273;SDS011;55104;47.356;19.448;2023-11-21T08:35:29;12.98;;;5.65;;
68273;SDS011;55104;47.356;19.448;2023-11-21T08:38:31;16.23;;;6.13;;
68273;SDS011;55104;47.356;19.448;2023-11-21T08:41:34;12.88;;;6.93;;
68273;SDS011;55104;47.356;19.448;2023-11-21T08:44:36;11.65;;;5.53;;
68273;SDS011;55104;47.356;19.448;2023-11-21T08:47:40;13.57;;;6.70;;
68273;SDS011;55104;47.356;19.448;2023-11-21T08:50:42;13.27;;;5.97;;
68273;SDS011;55104;47.356;19.448;2023-11-21T08:53:45;13.82;;;5.57;;
68273;SDS011;55104;47.356;19.448;2023-11-21T08:56:47;18.83;;;7.60;;
68273;SDS011;55104;47.356;19.448;2023-11-21T08:59:49;15.80;;;6.73;;
68273;SDS011;55104;47.356;19.448;2023-11-21T09:02:57;16.58;;;6.75;;
68273;SDS011;55104;47.356;19.448;2023-11-21T09:05:59;14.68;;;6.95;;
68273;SDS011;55104;47.356;19.448;2023-11-21T09:09:02;14.32;;;8.00;;
68273;SDS011;55104;47.356;19.448;2023-11-21T09:12:06;15.50;;;8.20;;
68273;SDS011;55104;47.356;19.448;2023-11-21T09:15:09;19.90;;;9.38;;
68273;SDS011;55104;47.356;19.448;2023-11-21T09:18:13;18.13;;;9.20;;
68273;SDS011;55104;47.356;19.448;2023-11-21T09:21:17;20.87;;;8.80;;
68273;SDS011;55104;47.356;19.448;2023-11-21T09:24:19;18.85;;;8.55;;
68273;SDS011;55104;47.356;19.448;2023-11-21T09:27:21;20.50;;;8.10;;
68273;SDS011;55104;47.356;19.448;2023-11-21T09:30:23;23.30;;;7.80;;
68273;SDS011;55104;47.356;19.448;2023-11-21T09:33:26;17.30;;;8.63;;
68273;SDS011;55104;47.356;19.448;2023-11-21T09:36:29;20.63;;;10.43;;
68273;SDS011;55104;47.356;19.448;2023-11-21T09:39:32;19.50;;;9.20;;
68273;SDS011;55104;47.356;19.448;2023-11-21T09:42:39;20.33;;;10.55;;
68273;SDS011;55104;47.356;19.448;2023-11-21T09:45:52;21.90;;;10.02;;
68273;SDS011;55104;47.356;19.448;2023-11-21T09:48:59;19.38;;;9.98;;
68273;SDS011;55104;47.356;19.448;2023-11-21T09:52:03;19.27;;;10.00;;
68273;SDS011;55104;47.356;19.448;2023-11-21T09:55:07;23.17;;;9.18;;
68273;SDS011;55104;47.356;19.448;2023-11-21T09:58:10;20.42;;;9.95;;
68273;SDS011;55104;47.356;19.448;2023-11-21T10:01:15;21.27;;;9.07;;
68273;SDS011;55104;47.356;19.448;2023-11-21T10:04:18;22.17;;;11.55;;
68273;SDS011;55104;47.356;19.448;2023-11-21T10:07:22;46.45;;;20.52;;
68273;SDS011;55104;47.356;19.448;2023-11-21T10:10:25;47.33;;;21.83;;
68273;SDS011;55104;47.356;19.448;2023-11-21T10:13:28;49.30;;;19.08;;
68273;SDS011;55104;47.356;19.448;2023-11-21T10:16:33;32.92;;;17.63;;
68273;SDS011;55104;47.356;19.448;2023-11-21T10:19:36;39.80;;;16.95;;
68273;SDS011;55104;47.356;19.448;2023-11-21T10:22:42;26.83;;;12.03;;
68273;SDS011;55104;47.356;19.448;2023-11-21T10:25:45;33.65;;;13.18;;
68273;SDS011;55104;47.356;19.448;2023-11-21T10:29:00;27.58;;;12.55;;
68273;SDS011;55104;47.356;19.448;2023-11-21T10:32:06;22.02;;;10.68;;
68273;SDS011;55104;47.356;19.448;2023-11-21T10:35:09;14.93;;;7.35;;
68273;SDS011;55104;47.356;19.448;2023-11-21T10:38:13;16.83;;;7.80;;
68273;SDS011;55104;47.356;19.448;2023-11-21T10:41:15;17.48;;;7.57;;
68273;SDS011;55104;47.356;19.448;2023-11-21T10:44:20;16.03;;;6.97;;
68273;SDS011;55104;47.356;19.448;2023-11-21T10:47:24;13.73;;;6.45;;
68273;SDS011;55104;47.356;19.448;2023-11-21T10:50:26;13.15;;;6.03;;
68273;SDS011;55104;47.356;19.448;2023-11-21T10:53:28;10.63;;;4.97;;
68273;SDS011;55104;47.356;19.448;2023-11-21T10:56:30;14.30;;;6.47;;
68273;SDS011;55104;47.356;19.448;2023-11-21T10:59:36;14.63;;;5.07;;
68273;SDS011;55104;47.356;19.448;2023-11-21T11:02:40;11.98;;;5.10;;
68273;SDS011;55104;47.356;19.448;2023-11-21T11:05:44;9.85;;;4.07;;
68273;SDS011;55104;47.356;19.448;2023-11-21T11:08:55;9.68;;;4.18;;
68273;SDS011;55104;47.356;19.448;2023-11-21T11:11:58;12.93;;;4.70;;
68273;SDS011;55104;47.356;19.448;2023-11-21T11:15:01;11.87;;;5.03;;
68273;SDS011;55104;47.356;19.448;2023-11-21T11:18:04;14.23;;;6.07;;
68273;SDS011;55104;47.356;19.448;2023-11-21T11:21:16;12.38;;;5.88;;
68273;SDS011;55104;47.356;19.448;2023-11-21T11:34:41;12.23;;;5.82;;
68273;SDS011;55104;47.356;19.448;2023-11-21T11:37:49;8.60;;;4.00;;
68273;SDS011;55104;47.356;19.448;2023-11-21T11:40:54;12.70;;;4.38;;
68273;SDS011;55104;47.356;19.448;2023-11-21T11:43:56;13.50;;;4.50;;
68273;SDS011;55104;47.356;19.448;2023-11-21T11:46:59;19.60;;;4.50;;
68273;SDS011;55104;47.356;19.448;2023-11-21T11:50:08;9.80;;;3.87;;
68273;SDS011;55104;47.356;19.448;2023-11-21T11:53:21;9.35;;;3.95;;
68273;SDS011;55104;47.356;19.448;2023-11-21T11:56:31;10.63;;;3.85;;
68273;SDS011;55104;47.356;19.448;2023-11-21T12:00:03;13.23;;;3.65;;
68273;SDS011;55104;47.356;19.448;2023-11-21T12:03:20;14.63;;;3.80;;
68273;SDS011;55104;47.356;19.448;2023-11-21T12:06:32;11.98;;;4.03;;
68273;SDS011;55104;47.356;19.448;2023-11-21T12:09:35;8.73;;;3.80;;
68273;SDS011;55104;47.356;19.448;2023-11-21T12:12:41;6.67;;;2.87;;
68273;SDS011;55104;47.356;19.448;2023-11-21T12:15:45;8.05;;;3.35;;
68273;SDS011;55104;47.356;19.448;2023-11-21T12:18:48;6.15;;;2.53;;
68273;SDS011;55104;47.356;19.448;2023-11-21T12:21:50;7.88;;;3.28;;
68273;SDS011;55104;47.356;19.448;2023-11-21T12:24:54;8.73;;;2.57;;
68273;SDS011;55104;47.356;19.448;2023-11-21T12:27:56;13.75;;;3.35;;
68273;SDS011;55104;47.356;19.448;2023-11-21T12:30:59;7.95;;;2.70;;
68273;SDS011;55104;47.356;19.448;2023-11-21T12:34:16;8.38;;;4.03;;
68273;SDS011;55104;47.356;19.448;2023-11-21T12:37:18;8.73;;;3.40;;
68273;SDS011;55104;47.356;19.448;2023-11-21T12:40:20;8.15;;;2.63;;
68273;SDS011;55104;47.356;19.448;2023-11-21T12:43:24;6.35;;;2.45;;
68273;SDS011;55104;47.356;19.448;2023-11-21T12:46:26;7.10;;;2.83;;
68273;SDS011;55104;47.356;19.448;2023-11-21T12:49:31;14.40;;;5.30;;
68273;SDS011;55104;47.356;19.448;2023-11-21T12:52:36;8.48;;;3.60;;
68273;SDS011;55104;47.356;19.448;2023-11-21T12:55:40;9.70;;;4.70;;
68273;SDS011;55104;47.356;19.448;2023-11-21T12:58:44;15.38;;;5.10;;
68273;SDS011;55104;47.356;19.448;2023-11-21T13:01:54;12.02;;;5.40;;
68273;SDS011;55104;47.356;19.448;2023-11-21T13:05:00;12.43;;;4.93;;
68273;SDS011;55104;47.356;19.448;2023-11-21T13:08:08;11.20;;;3.83;;
68273;SDS011;55104;47.356;19.448;2023-11-21T13:11:14;12.80;;;4.73;;
68273;SDS011;55104;47.356;19.448;2023-11-21T13:14:16;12.55;;;5.47;;
68273;SDS011;55104;47.356;19.448;2023-11-21T13:17:20;12.82;;;5.88;;
68273;SDS011;55104;47.356;19.448;2023-11-21T13:20:26;10.40;;;4.63;;
68273;SDS011;55104;47.356;19.448;2023-11-21T13:23:28;10.07;;;3.90;;
68273;SDS011;55104;47.356;19.448;2023-11-21T13:26:31;6.15;;;2.40;;
68273;SDS011;55104;47.356;19.448;2023-11-21T13:29:34;7.55;;;2.40;;
68273;SDS011;55104;47.356;19.448;2023-11-21T13:32:37;15.13;;;3.10;;
68273;SDS011;55104;47.356;19.448;2023-11-21T13:35:39;6.80;;;2.10;;
68273;SDS011;55104;47.356;19.448;2023-11-21T13:38:44;6.20;;;1.77;;
68273;SDS011;55104;47.356;19.448;2023-11-21T13:41:48;13.73;;;2.50;;
68273;SDS011;55104;47.356;19.448;2023-11-21T13:44:57;6.35;;;2.28;;
68273;SDS011;55104;47.356;19.448;2023-11-21T13:47:59;14.77;;;5.30;;
68273;SDS011;55104;47.356;19.448;2023-11-21T13:51:02;9.65;;;3.70;;
68273;SDS011;55104;47.356;19.448;2023-11-21T13:54:14;9.65;;;3.28;;
68273;SDS011;55104;47.356;19.448;2023-11-21T13:57:16;11.30;;;4.15;;
68273;SDS011;55104;47.356;19.448;2023-11-21T14:00:18;10.33;;;4.00;;
68273;SDS011;55104;47.356;19.448;2023-11-21T14:03:39;20.13;;;5.60;;
68273;SDS011;55104;47.356;19.448;2023-11-21T14:06:52;14.60;;;5.15;;
68273;SDS011;55104;47.356;19.448;2023-11-21T14:09:56;11.40;;;4.28;;
68273;SDS011;55104;47.356;19.448;2023-11-21T14:13:00;10.87;;;4.47;;
68273;SDS011;55104;47.356;19.448;2023-11-21T14:16:02;9.77;;;3.08;;
68273;SDS011;55104;47.356;19.448;2023-11-21T14:19:08;12.40;;;4.80;;
68273;SDS011;55104;47.356;19.448;2023-11-21T14:22:19;14.45;;;5.57;;
68273;SDS011;55104;47.356;19.448;2023-11-21T14:25:22;9.83;;;4.43;;
68273;SDS011;55104;47.356;19.448;2023-11-21T14:28:24;7.97;;;2.95;;
68273;SDS011;55104;47.356;19.448;2023-11-21T14:31:27;14.38;;;3.15;;
68273;SDS011;55104;47.356;19.448;2023-11-21T14:34:32;14.95;;;6.13;;
68273;SDS011;55104;47.356;19.448;2023-11-21T14:37:34;18.17;;;6.27;;
68273;SDS011;55104;47.356;19.448;2023-11-21T14:40:37;12.63;;;4.88;;
68273;SDS011;55104;47.356;19.448;2023-11-21T14:43:39;9.70;;;4.80;;
68273;SDS011;55104;47.356;19.448;2023-11-21T14:46:42;15.18;;;5.82;;
68273;SDS011;55104;47.356;19.448;2023-11-21T14:49:49;21.03;;;6.90;;
68273;SDS011;55104;47.356;19.448;2023-11-21T14:52:57;13.57;;;6.22;;
68273;SDS011;55104;47.356;19.448;2023-11-21T14:56:01;12.77;;;6.45;;
68273;SDS011;55104;47.356;19.448;2023-11-21T14:59:05;21.95;;;5.53;;
68273;SDS011;55104;47.356;19.448;2023-11-21T15:02:14;16.23;;;8.37;;
68273;SDS011;55104;47.356;19.448;2023-11-21T15:05:17;16.42;;;7.70;;
68273;SDS011;55104;47.356;19.448;2023-11-21T15:08:21;16.83;;;8.02;;
68273;SDS011;55104;47.356;19.448;2023-11-21T15:11:28;36.13;;;14.65;;
68273;SDS011;55104;47.356;19.448;2023-11-21T15:14:33;35.35;;;16.52;;
68273;SDS011;55104;47.356;19.448;2023-11-21T15:17:37;43.33;;;17.92;;
68273;SDS011;55104;47.356;19.448;2023-11-21T15:20:42;63.20;;;22.27;;
68273;SDS011;55104;47.356;19.448;2023-11-21T15:23:45;71.20;;;23.60;;
68273;SDS011;55104;47.356;19.448;2023-11-21T15:26:48;61.78;;;20.13;;
68273;SDS011;55104;47.356;19.448;2023-11-21T15:29:51;40.95;;;16.65;;
68273;SDS011;55104;47.356;19.448;2023-11-21T15:32:53;41.27;;;16.93;;
68273;SDS011;55104;47.356;19.448;2023-11-21T15:35:55;38.33;;;13.98;;
68273;SDS011;55104;47.356;19.448;2023-11-21T15:38:57;43.72;;;15.90;;
68273;SDS011;55104;47.356;19.448;2023-11-21T15:42:00;55.33;;;16.80;;
68273;SDS011;55104;47.356;19.448;2023-11-21T15:45:02;35.55;;;15.57;;
68273;SDS011;55104;47.356;19.448;2023-11-21T15:48:09;41.05;;;17.67;;
68273;SDS011;55104;47.356;19.448;2023-11-21T15:51:12;38.55;;;15.88;;
68273;SDS011;55104;47.356;19.448;2023-11-21T15:54:14;33.83;;;14.00;;
68273;SDS011;55104;47.356;19.448;2023-11-21T15:57:16;28.42;;;10.70;;
68273;SDS011;55104;47.356;19.448;2023-11-21T16:00:20;22.40;;;9.52;;
68273;SDS011;55104;47.356;19.448;2023-11-21T16:03:24;15.68;;;7.15;;
68273;SDS011;55104;47.356;19.448;2023-11-21T16:06:27;23.15;;;7.78;;
68273;SDS011;55104;47.356;19.448;2023-11-21T16:09:30;19.73;;;9.88;;
68273;SDS011;55104;47.356;19.448;2023-11-21T16:12:33;32.38;;;13.05;;
68273;SDS011;55104;47.356;19.448;2023-11-21T16:15:36;28.63;;;11.13;;
68273;SDS011;55104;47.356;19.448;2023-11-21T16:18:38;37.75;;;14.73;;
68273;SDS011;55104;47.356;19.448;2023-11-21T16:21:40;30.52;;;13.80;;
68273;SDS011;55104;47.356;19.448;2023-11-21T16:24:42;43.30;;;19.80;;
68273;SDS011;55104;47.356;19.448;2023-11-21T16:27:44;53.97;;;22.15;;
68273;SDS011;55104;47.356;19.448;2023-11-21T16:30:47;43.38;;;20.98;;
68273;SDS011;55104;47.356;19.448;2023-11-21T16:33:50;42.67;;;22.42;;
68273;SDS011;55104;47.356;19.448;2023-11-21T16:36:52;36.22;;;19.15;;
68273;SDS011;55104;47.356;19.448;2023-11-21T16:39:54;31.75;;;17.08;;
68273;SDS011;55104;47.356;19.448;2023-11-21T16:42:56;38.63;;;17.58;;
68273;SDS011;55104;47.356;19.448;2023-11-21T16:45:59;31.37;;;16.57;;
68273;SDS011;55104;47.356;19.448;2023-11-21T16:49:01;26.52;;;12.32;;
68273;SDS011;55104;47.356;19.448;2023-11-21T16:52:03;18.30;;;8.40;;
68273;SDS011;55104;47.356;19.448;2023-11-21T16:55:09;17.80;;;6.47;;
68273;SDS011;55104;47.356;19.448;2023-11-21T16:58:11;15.30;;;6.00;;
68273;SDS011;55104;47.356;19.448;2023-11-21T17:01:14;13.95;;;7.47;;
68273;SDS011;55104;47.356;19.448;2023-11-21T17:04:16;15.07;;;6.32;;
68273;SDS011;55104;47.356;19.448;2023-11-21T17:07:21;10.02;;;4.43;;
68273;SDS011;55104;47.356;19.448;2023-11-21T17:10:24;10.93;;;5.07;;
68273;SDS011;55104;47.356;19.448;2023-11-21T17:13:26;16.35;;;5.35;;
68273;SDS011;55104;47.356;19.448;2023-11-21T17:16:30;12.00;;;5.80;;
68273;SDS011;55104;47.356;19.448;2023-11-21T17:19:33;23.00;;;6.88;;
68273;SDS011;55104;47.356;19.448;2023-11-21T17:22:37;13.18;;;4.93;;
68273;SDS011;55104;47.356;19.448;2023-11-21T17:25:42;11.80;;;4.13;;
68273;SDS011;55104;47.356;19.448;2023-11-21T17:28:44;11.60;;;4.45;;
68273;SDS011;55104;47.356;19.448;2023-11-21T17:31:46;12.20;;;4.55;;
68273;SDS011;55104;47.356;19.448;2023-11-21T17:34:49;16.48;;;5.03;;
68273;SDS011;55104;47.356;19.448;2023-11-21T17:37:51;7.20;;;3.38;;
68273;SDS011;55104;47.356;19.448;2023-11-21T17:40:53;13.05;;;5.00;;
68273;SDS011;55104;47.356;19.448;2023-11-21T17:43:56;10.75;;;4.40;;
68273;SDS011;55104;47.356;19.448;2023-11-21T17:46:58;6.60;;;2.70;;
68273;SDS011;55104;47.356;19.448;2023-11-21T17:50:01;7.22;;;2.22;;
68273;SDS011;55104;47.356;19.448;2023-11-21T17:53:03;8.90;;;3.03;;
68273;SDS011;55104;47.356;19.448;2023-11-21T17:56:11;9.10;;;3.35;;
68273;SDS011;55104;47.356;19.448;2023-11-21T17:59:16;6.82;;;3.00;;
68273;SDS011;55104;47.356;19.448;2023-11-21T18:02:18;12.27;;;2.72;;